Blythe, Georgia
Current Conditions -  °F | °C
As of 12:53 AM on Wednesday 28 Jan 2015 (Local Time) from KAGS Reporting Station
Clear Clear  
Wind Chill: 26°   Ceiling: Unl
Heat Index: 32°   Visibility: 10mi
Dew Point: 26°   Wind: 6mph
Humidity: 79%   Direction: 300°WNW
Pressure: 30.07"   Gusts: NA
Location:  33.29°N, 82.2°W
Report Text: KAGS 280553Z AUTO 30005KT 10SM CLR 00/M03 A3007 RMK AO2 SLP184 T00001033 10078 21006 51016
Loading
Personal Weather Stations






























Interactive Weather Map New forecast layout! Learn more

10-Day Weather Forecast

Advertisements
Track Severe Weather on mobile